Time;durP1;ratioP1;P1;durP2;ratioP2;P2;SDS_P1;SDS_P2;PMS_P1;PMS_P2;Temp;Humidity;BMP_temperature;BMP_pressure;BME280_temperature;BME280_humidity;BME280_pressure;Samples;Min_cycle;Max_cycle;Signal;HPM_P1;HPM_P2
2023/12/12 00:00:37;;;;;;;38.77;25.07;;;;;;;2.86;100.00;56641.41;6184866;23;20174;-61
2023/12/12 00:03:04;;;;;;;40.37;23.70;;;;;;;3.03;100.00;52740.09;6185508;23;20621;-62
2023/12/12 00:05:31;;;;;;;45.63;25.93;;;;;;;3.14;100.00;49732.09;6185002;23;20172;-63
2023/12/12 00:08:00;;;;;;;43.20;25.33;;;;;;;3.26;100.00;47006.28;6185529;23;20232;-61
2023/12/12 00:10:27;;;;;;;43.70;26.23;;;;;;;3.37;100.00;45794.38;6185276;23;20640;-62
2023/12/12 00:12:54;;;;;;;43.80;26.77;;;;;;;3.26;100.00;45542.91;6185219;23;20221;-62
2023/12/12 00:15:22;;;;;;;43.90;27.13;;;;;;;3.60;100.00;46666.41;6184801;23;20197;-63
2023/12/12 00:17:49;;;;;;;48.47;28.57;;;;;;;3.64;100.00;47558.50;6185021;23;20159;-62
2023/12/12 00:20:16;;;;;;;54.83;31.60;;;;;;;3.67;100.00;48259.72;6185115;23;20225;-63
2023/12/12 00:22:43;;;;;;;57.37;31.53;;;;;;;3.63;100.00;50716.63;6185129;23;20216;-63
2023/12/12 00:25:10;;;;;;;43.17;26.20;;;;;;;3.60;100.00;50350.59;6184860;23;20162;-61
2023/12/12 00:27:37;;;;;;;37.57;24.90;;;;;;;3.58;100.00;49870.22;6185144;23;20505;-61
2023/12/12 00:30:05;;;;;;;38.93;25.90;;;;;;;3.57;100.00;49385.84;6184678;23;20158;-62
2023/12/12 00:32:34;;;;;;;41.07;24.53;;;;;;;3.47;100.00;48996.50;6185098;23;20166;-62
2023/12/12 00:35:01;;;;;;;39.40;24.13;;;;;;;3.60;100.00;49240.66;6185268;23;20609;-62
2023/12/12 00:37:28;;;;;;;37.23;25.13;;;;;;;3.53;100.00;49677.97;6184750;23;20605;-62
2023/12/12 00:39:55;;;;;;;35.63;23.47;;;;;;;3.56;100.00;49695.63;6184247;23;20208;-62
2023/12/12 00:42:23;;;;;;;37.90;24.57;;;;;;;3.58;100.00;49747.47;6184064;23;20166;-61
2023/12/12 00:44:50;;;;;;;39.90;25.07;;;;;;;3.47;100.00;49560.03;6184460;23;20159;-62
2023/12/12 00:47:17;;;;;;;38.50;25.13;;;;;;;3.39;100.00;50788.00;6184523;23;20158;-63
2023/12/12 00:49:45;;;;;;;41.40;25.63;;;;;;;3.60;100.00;51351.03;6184902;23;20545;-61
2023/12/12 00:52:12;;;;;;;37.57;24.33;;;;;;;3.45;100.00;53565.69;6184720;23;20297;-62
2023/12/12 00:54:39;;;;;;;39.33;25.03;;;;;;;3.42;100.00;53126.59;6184812;23;20162;-62
2023/12/12 00:57:06;;;;;;;40.60;25.27;;;;;;;3.44;100.00;52151.19;6184367;23;20236;-62
2023/12/12 00:59:33;;;;;;;35.53;24.07;;;;;;;3.06;100.00;51823.91;6184531;23;20237;-63
2023/12/12 01:02:00;;;;;;;35.53;23.90;;;;;;;3.39;100.00;51083.66;6184535;23;20214;-62
2023/12/12 01:04:27;;;;;;;34.23;23.40;;;;;;;3.48;100.00;49866.94;6184199;23;20166;-63
2023/12/12 01:06:56;;;;;;;37.67;23.23;;;;;;;3.52;100.00;47696.19;6184595;23;20166;-63
2023/12/12 01:09:23;;;;;;;33.03;23.10;;;;;;;3.57;100.00;46225.94;6184406;23;20167;-63
2023/12/12 01:11:50;;;;;;;30.80;21.57;;;;;;;3.49;100.00;45511.34;6184164;23;20162;-62
2023/12/12 01:14:17;;;;;;;33.47;22.60;;;;;;;3.62;100.00;44455.91;6184187;23;20158;-62
2023/12/12 01:16:44;;;;;;;36.77;23.07;;;;;;;3.57;100.00;44364.44;6184644;23;20181;-62
2023/12/12 01:19:12;;;;;;;35.13;22.80;;;;;;;3.45;100.00;44512.59;6184094;23;20177;-63
2023/12/12 01:21:39;;;;;;;34.63;23.93;;;;;;;3.44;100.00;43781.63;6184561;23;20699;-62
2023/12/12 01:24:07;;;;;;;35.37;22.40;;;;;;;3.49;100.00;42500.44;6184615;23;20216;-61
2023/12/12 01:26:34;;;;;;;36.30;22.80;;;;;;;3.40;100.00;43011.44;6184004;23;20217;-61
2023/12/12 01:29:01;;;;;;;34.33;21.87;;;;;;;3.46;100.00;43208.13;6184561;23;20617;-62
2023/12/12 01:31:28;;;;;;;34.67;22.93;;;;;;;3.53;100.00;42660.94;6184450;23;20189;-61
2023/12/12 01:33:55;;;;;;;39.07;23.53;;;;;;;3.46;100.00;44383.34;6183938;23;20166;-62
2023/12/12 01:36:22;;;;;;;35.23;22.30;;;;;;;3.38;100.00;45170.25;6184552;23;20221;-64
2023/12/12 01:38:49;;;;;;;43.40;23.60;;;;;;;3.35;100.00;45612.69;6184048;23;20229;-62
2023/12/12 01:41:18;;;;;;;34.03;23.60;;;;;;;3.31;100.00;46112.63;6184294;23;20236;-62
2023/12/12 01:43:45;;;;;;;40.87;24.90;;;;;;;3.31;100.00;45892.13;6184281;23;20483;-63
2023/12/12 01:46:17;;;;;;;47.87;27.77;;;;;;;3.12;100.00;45835.06;6184006;23;20624;-63
2023/12/12 01:48:44;;;;;;;45.57;27.40;;;;;;;3.10;100.00;44883.38;6184439;23;20158;-62
2023/12/12 01:51:12;;;;;;;43.90;26.40;;;;;;;2.71;100.00;44695.13;6184486;23;20686;-63
2023/12/12 01:53:43;;;;;;;43.97;27.37;;;;;;;2.89;100.00;44421.97;6183793;23;20600;-63
2023/12/12 01:56:11;;;;;;;37.73;25.23;;;;;;;2.84;100.00;44185.72;6183995;23;20162;-62
2023/12/12 01:58:43;;;;;;;41.23;25.90;;;;;;;2.93;100.00;43815.06;6184235;23;20162;-62
2023/12/12 02:01:11;;;;;;;45.67;26.30;;;;;;;2.80;100.00;44404.91;6184212;23;20241;-62
2023/12/12 02:03:41;;;;;;;39.70;25.00;;;;;;;2.95;100.00;45126.44;6184186;23;20442;-62
2023/12/12 02:06:09;;;;;;;43.10;25.57;;;;;;;3.06;100.00;45767.69;6184387;23;20162;-61
2023/12/12 02:08:36;;;;;;;40.30;25.63;;;;;;;3.06;100.00;46780.47;6184391;23;20165;-62
2023/12/12 02:11:03;;;;;;;40.10;25.87;;;;;;;3.05;100.00;47114.41;6184170;23;20502;-62
2023/12/12 02:13:31;;;;;;;43.27;24.93;;;;;;;3.09;100.00;47103.13;6183787;23;20161;-61
2023/12/12 02:15:59;;;;;;;38.23;24.80;;;;;;;3.07;100.00;47936.59;6184174;23;20232;-63
2023/12/12 02:18:26;;;;;;;41.03;25.73;;;;;;;3.06;100.00;48076.28;6183904;23;20162;-62
2023/12/12 02:20:53;;;;;;;58.30;34.27;;;;;;;3.11;100.00;48260.25;6184235;23;20182;-62
2023/12/12 02:23:21;;;;;;;105.17;45.00;;;;;;;3.15;100.00;49227.69;6184003;23;20228;-62
2023/12/12 02:25:49;;;;;;;95.57;52.63;;;;;;;3.16;100.00;49694.19;6183625;23;20162;-64
2023/12/12 02:28:16;;;;;;;89.47;50.10;;;;;;;2.85;100.00;48949.09;6184059;23;20154;-62
2023/12/12 02:30:43;;;;;;;101.10;55.50;;;;;;;2.91;100.00;49123.97;6184161;23;20543;-63
2023/12/12 02:33:10;;;;;;;101.77;54.30;;;;;;;2.94;100.00;49762.63;6183753;23;20159;-62
2023/12/12 02:35:37;;;;;;;98.83;53.00;;;;;;;2.87;100.00;51153.22;6183684;23;20227;-64
2023/12/12 02:38:05;;;;;;;99.80;53.03;;;;;;;2.83;100.00;50533.84;6184102;23;20220;-62
2023/12/12 02:40:33;;;;;;;98.80;50.90;;;;;;;2.76;100.00;50965.63;6183610;23;20471;-61
2023/12/12 02:43:00;;;;;;;89.73;48.17;;;;;;;2.66;100.00;51021.78;6183620;23;20232;-63
2023/12/12 02:45:27;;;;;;;79.57;45.70;;;;;;;2.65;100.00;52267.38;6184226;23;20499;-62
2023/12/12 02:47:54;;;;;;;210.33;61.00;;;;;;;2.73;100.00;53397.03;6183191;23;20169;-61
2023/12/12 02:50:21;;;;;;;286.27;71.37;;;;;;;2.65;100.00;54834.38;6183857;23;20196;-62
2023/12/12 02:52:48;;;;;;;203.87;64.53;;;;;;;2.69;100.00;56622.63;6183850;23;20202;-62
2023/12/12 02:55:15;;;;;;;138.87;62.20;;;;;;;2.73;100.00;57596.91;6183447;23;20170;-61
2023/12/12 02:57:44;;;;;;;178.67;62.93;;;;;;;2.79;100.00;57048.22;6183530;23;20221;-63
2023/12/12 03:00:12;;;;;;;260.50;68.20;;;;;;;2.84;100.00;56760.31;6183772;23;20184;-61
2023/12/12 03:02:39;;;;;;;201.07;65.30;;;;;;;2.79;100.00;56291.53;6183534;23;20162;-62
2023/12/12 03:05:06;;;;;;;213.50;67.30;;;;;;;2.81;100.00;56102.94;6184265;23;20236;-62
2023/12/12 03:07:33;;;;;;;134.93;66.73;;;;;;;2.81;100.00;55465.75;6185506;23;20219;-62
2023/12/12 03:10:00;;;;;;;120.27;61.47;;;;;;;2.68;100.00;54248.53;6185781;23;20166;-62
2023/12/12 03:12:27;;;;;;;120.73;62.50;;;;;;;2.88;100.00;54335.16;6185408;23;20175;-61
2023/12/12 03:14:56;;;;;;;104.57;57.13;;;;;;;2.97;100.00;55526.84;6185541;23;20165;-61
2023/12/12 03:17:23;;;;;;;103.47;56.13;;;;;;;3.08;100.00;56390.22;6185707;23;20158;-61
2023/12/12 03:19:51;;;;;;;100.97;57.97;;;;;;;3.14;100.00;57183.88;6186044;23;20224;-61
2023/12/12 03:22:18;;;;;;;101.37;56.50;;;;;;;3.14;100.00;58842.81;6185136;23;20193;-62
2023/12/12 03:24:45;;;;;;;113.30;57.13;;;;;;;3.06;100.00;59057.50;6185249;23;20242;-61
2023/12/12 03:27:12;;;;;;;95.57;52.67;;;;;;;3.20;100.00;57877.50;6185679;23;20162;-62
2023/12/12 03:29:39;;;;;;;110.90;57.33;;;;;;;3.22;100.00;58052.72;6185880;23;20605;-63
2023/12/12 03:32:08;;;;;;;126.27;67.57;;;;;;;3.13;100.00;55973.75;6185640;23;20212;-62
2023/12/12 03:34:35;;;;;;;137.40;72.80;;;;;;;3.16;100.00;55542.75;6185174;23;20248;-63
2023/12/12 03:37:02;;;;;;;142.00;77.57;;;;;;;3.03;100.00;55366.69;6185271;23;20201;-63
2023/12/12 03:39:29;;;;;;;174.93;90.03;;;;;;;2.91;100.00;50890.97;6184985;23;20169;-62
2023/12/12 03:41:56;;;;;;;201.23;102.70;;;;;;;2.95;100.00;49638.38;6185012;23;20178;-62
2023/12/12 03:44:23;;;;;;;207.93;106.67;;;;;;;2.92;100.00;51533.28;6185548;23;20262;-62
2023/12/12 03:46:50;;;;;;;224.33;110.43;;;;;;;2.96;100.00;51088.66;6185494;23;20219;-62
2023/12/12 03:49:19;;;;;;;230.57;115.37;;;;;;;3.05;100.00;51640.19;6185013;23;20158;-63
2023/12/12 03:51:46;;;;;;;233.23;114.80;;;;;;;3.18;100.00;53405.53;6185433;23;20672;-62
2023/12/12 03:54:13;;;;;;;226.40;115.57;;;;;;;3.22;100.00;55330.34;6185119;23;20212;-63
2023/12/12 03:56:40;;;;;;;221.57;111.50;;;;;;;3.07;100.00;57136.78;6185272;23;20162;-61
2023/12/12 03:59:07;;;;;;;179.53;90.93;;;;;;;2.97;100.00;59723.97;6185368;23;20237;-63
2023/12/12 04:01:34;;;;;;;169.97;84.27;;;;;;;3.18;100.00;60318.38;6185202;23;20182;-62
2023/12/12 04:04:01;;;;;;;157.97;80.67;;;;;;;3.07;100.00;59345.22;6184904;23;20185;-62
2023/12/12 04:06:29;;;;;;;168.50;85.77;;;;;;;3.14;100.00;58549.13;6185275;23;20501;-63
2023/12/12 04:08:56;;;;;;;154.23;82.93;;;;;;;3.39;100.00;56745.97;6184966;23;20165;-61
2023/12/12 04:11:23;;;;;;;178.37;92.63;;;;;;;3.44;100.00;56108.91;6185261;23;20475;-63
2023/12/12 04:13:51;;;;;;;184.77;97.63;;;;;;;3.55;100.00;54796.69;6184680;23;20192;-62
2023/12/12 04:16:18;;;;;;;186.37;97.30;;;;;;;3.56;100.00;53994.88;6184753;23;20197;-62
2023/12/12 04:18:45;;;;;;;190.50;95.70;;;;;;;3.61;100.00;52635.13;6185283;23;20613;-63
2023/12/12 04:21:12;;;;;;;191.40;99.07;;;;;;;3.46;100.00;51957.50;6184714;23;20236;-62
2023/12/12 04:23:42;;;;;;;192.83;96.93;;;;;;;3.40;100.00;51024.41;6185185;23;20166;-63
2023/12/12 04:26:10;;;;;;;176.27;89.70;;;;;;;3.14;100.00;49579.78;6184735;23;20173;-63
2023/12/12 04:28:38;;;;;;;174.73;88.10;;;;;;;3.32;100.00;46821.47;6184754;23;20205;-63
2023/12/12 04:31:05;;;;;;;173.77;89.87;;;;;;;3.46;100.00;46765.44;6184624;23;20164;-61
2023/12/12 04:33:32;;;;;;;161.10;86.43;;;;;;;3.46;100.00;47070.78;6184558;23;20232;-62
2023/12/12 04:35:59;;;;;;;158.00;84.53;;;;;;;3.48;100.00;47290.19;6184644;23;20163;-62
2023/12/12 04:38:26;;;;;;;163.17;84.53;;;;;;;3.51;100.00;47349.88;6184636;23;20166;-61
2023/12/12 04:40:54;;;;;;;170.07;86.03;;;;;;;3.57;100.00;47017.31;6184561;23;20186;-61
2023/12/12 04:43:22;;;;;;;162.13;82.33;;;;;;;3.73;100.00;46826.91;6184914;23;20162;-62
2023/12/12 04:45:49;;;;;;;152.80;78.17;;;;;;;3.80;100.00;47015.47;6184493;23;20241;-63
2023/12/12 04:48:17;;;;;;;151.50;79.20;;;;;;;3.75;100.00;47667.88;6184851;23;20598;-63
2023/12/12 04:50:44;;;;;;;156.77;75.00;;;;;;;3.82;100.00;47272.56;6184316;23;20598;-61
2023/12/12 04:53:11;;;;;;;159.17;78.97;;;;;;;3.68;100.00;47927.88;6184369;23;20260;-63
2023/12/12 04:55:38;;;;;;;154.47;79.23;;;;;;;3.64;100.00;46549.94;6184221;23;20239;-61
2023/12/12 04:58:07;;;;;;;148.07;75.13;;;;;;;3.81;100.00;45499.44;6184146;23;20244;-63
2023/12/12 05:00:34;;;;;;;144.23;73.77;;;;;;;3.81;100.00;45091.47;6184381;23;20479;-62
2023/12/12 05:03:01;;;;;;;143.67;69.67;;;;;;;3.80;100.00;44387.44;6184349;23;20221;-63
2023/12/12 05:05:28;;;;;;;133.00;65.43;;;;;;;3.88;100.00;43177.25;6184155;23;20158;-62
2023/12/12 05:07:56;;;;;;;155.60;71.00;;;;;;;3.83;100.00;43944.00;6184669;23;20166;-62
2023/12/12 05:10:23;;;;;;;136.80;65.83;;;;;;;3.80;100.00;43396.69;6184216;23;20237;-61
2023/12/12 05:12:50;;;;;;;129.87;63.50;;;;;;;3.85;100.00;42919.81;6184516;23;20166;-62
2023/12/12 05:15:19;;;;;;;125.17;62.67;;;;;;;3.82;100.00;42402.69;6184231;23;20166;-62
2023/12/12 05:17:46;;;;;;;127.37;60.63;;;;;;;3.90;100.00;42718.50;6184043;23;20217;-63
2023/12/12 05:20:13;;;;;;;128.37;61.13;;;;;;;3.85;100.00;42569.66;6184390;23;20158;-63
2023/12/12 05:22:40;;;;;;;127.93;63.23;;;;;;;3.66;100.00;42308.19;6184011;23;20682;-63
2023/12/12 05:25:08;;;;;;;125.97;63.87;;;;;;;3.79;100.00;41395.28;6184490;23;20185;-61
2023/12/12 05:27:35;;;;;;;130.20;63.37;;;;;;;3.66;100.00;41701.09;6183750;23;20162;-62
2023/12/12 05:30:02;;;;;;;126.07;63.47;;;;;;;3.86;100.00;40957.53;6184512;23;20521;-62
2023/12/12 05:32:31;;;;;;;129.27;66.47;;;;;;;4.04;100.00;40388.34;6183974;23;20158;-62
2023/12/12 05:34:58;;;;;;;130.00;64.13;;;;;;;4.09;100.00;40181.88;6184122;23;20455;-63
2023/12/12 05:37:25;;;;;;;124.67;65.23;;;;;;;4.09;100.00;38784.13;6184206;23;20228;-63
2023/12/12 05:39:52;;;;;;;123.20;62.00;;;;;;;4.01;100.00;38336.66;6183795;23;20195;-63
2023/12/12 05:42:20;;;;;;;131.57;62.77;;;;;;;3.73;100.00;37009.13;6184037;23;20588;-63
2023/12/12 05:44:47;;;;;;;130.40;64.50;;;;;;;3.95;100.00;35310.84;6184128;23;20601;-62
2023/12/12 05:47:14;;;;;;;140.17;65.63;;;;;;;3.89;100.00;35816.28;6184077;23;20170;-63
2023/12/12 05:49:42;;;;;;;367.00;212.17;;;;;;;3.36;100.00;36737.72;6183766;23;20169;-64
2023/12/12 05:52:10;;;;;;;198.20;105.93;;;;;;;3.61;100.00;35948.38;6183940;23;20696;-61
2023/12/12 05:54:38;;;;;;;161.27;83.17;;;;;;;3.61;100.00;38209.84;6183620;23;20492;-63
2023/12/12 05:57:05;;;;;;;164.60;77.00;;;;;;;3.61;100.00;39263.38;6183976;23;20213;-62
2023/12/12 05:59:32;;;;;;;153.97;70.83;;;;;;;3.42;100.00;40463.84;6183687;23;20169;-63
2023/12/12 06:02:00;;;;;;;134.47;67.90;;;;;;;3.57;100.00;40572.41;6183863;23;20240;-64
2023/12/12 06:04:28;;;;;;;131.00;64.30;;;;;;;3.73;100.00;41470.53;6183711;23;20216;-62
2023/12/12 06:06:56;;;;;;;125.50;64.00;;;;;;;3.83;100.00;43165.94;6184236;23;20224;-63
2023/12/12 06:09:23;;;;;;;124.93;62.57;;;;;;;4.02;100.00;43590.84;6183688;23;20224;-62
2023/12/12 06:11:50;;;;;;;115.00;59.07;;;;;;;4.08;100.00;44689.75;6184010;23;20546;-62
2023/12/12 06:14:17;;;;;;;114.73;57.87;;;;;;;4.10;100.00;44300.78;6183781;23;20220;-62
2023/12/12 06:16:44;;;;;;;104.30;54.87;;;;;;;4.19;100.00;44584.97;6184017;23;20158;-61
2023/12/12 06:19:11;;;;;;;106.23;54.13;;;;;;;4.23;100.00;43657.06;6183952;23;20177;-62
2023/12/12 06:21:38;;;;;;;104.53;54.87;;;;;;;4.10;100.00;42385.78;6184114;23;20240;-62
2023/12/12 06:24:08;;;;;;;126.60;56.33;;;;;;;3.96;100.00;39690.19;6183674;23;20166;-62
2023/12/12 06:26:37;;;;;;;130.93;55.37;;;;;;;4.05;100.00;38761.72;6183860;23;20241;-62
2023/12/12 06:29:07;;;;;;;117.03;54.63;;;;;;;4.00;100.00;37743.88;6183801;23;20193;-61
2023/12/12 06:31:34;;;;;;;114.00;50.27;;;;;;;4.22;100.00;37048.34;6184033;23;20216;-63
2023/12/12 06:34:03;;;;;;;95.70;47.50;;;;;;;4.28;100.00;36582.56;6184195;23;20169;-62
2023/12/12 06:36:30;;;;;;;89.60;46.00;;;;;;;4.56;100.00;35793.91;6184478;23;20162;-61
2023/12/12 06:39:00;;;;;;;87.73;45.07;;;;;;;4.70;100.00;34187.91;6184741;23;20166;-64
2023/12/12 06:41:28;;;;;;;86.07;45.10;;;;;;;4.88;100.00;32440.38;6185137;23;20236;-62
2023/12/12 06:43:55;;;;;;;86.83;43.23;;;;;;;4.83;100.00;30167.66;6185781;23;20557;-61
2023/12/12 06:46:22;;;;;;;79.70;41.57;;;;;;;4.94;100.00;25506.56;6185900;23;20671;-62
2023/12/12 06:48:49;;;;;;;78.17;42.47;;;;;;;5.07;100.00;20076.59;6185283;23;20162;-62
2023/12/12 06:51:16;;;;;;;88.90;45.33;;;;;;;5.17;100.00;16576.41;6185502;23;20679;-60
2023/12/12 06:53:44;;;;;;;78.67;42.73;;;;;;;5.29;100.00;14352.19;6185410;23;20198;-60
2023/12/12 06:56:12;;;;;;;82.33;42.63;;;;;;;5.45;100.00;13402.06;6185550;23;20174;-60
2023/12/12 06:58:40;;;;;;;84.67;42.17;;;;;;;5.57;100.00;13405.19;6185863;23;20452;-60
2023/12/12 07:01:09;;;;;;;72.00;38.60;;;;;;;5.58;100.00;14678.84;6185587;23;20606;-61
2023/12/12 07:03:36;;;;;;;74.60;40.07;;;;;;;5.71;100.00;15638.09;6185918;23;20165;-62
2023/12/12 07:06:03;;;;;;;60.57;35.27;;;;;;;5.71;100.00;19462.69;6186663;23;20170;-62
2023/12/12 07:08:30;;;;;;;65.40;36.37;;;;;;;5.69;100.00;23609.88;6186543;23;20162;-62
2023/12/12 07:10:58;;;;;;;65.57;38.50;;;;;;;5.60;100.00;22329.44;6185659;23;20158;-63
2023/12/12 07:13:25;;;;;;;71.23;40.13;;;;;;;5.87;100.00;21383.06;6186197;23;20154;-62
2023/12/12 07:15:54;;;;;;;81.40;41.33;;;;;;;5.78;100.00;20741.06;6188365;23;20205;-65
2023/12/12 07:18:21;;;;;;;67.97;35.27;;;;;;;5.89;100.00;21383.88;6187019;23;20159;-65
2023/12/12 07:20:48;;;;;;;58.90;34.37;;;;;;;5.82;100.00;23296.44;6186911;23;20174;-64
2023/12/12 07:23:15;;;;;;;70.90;37.30;;;;;;;5.93;100.00;21704.69;6185391;23;20240;-65
2023/12/12 07:25:42;;;;;;;66.27;40.10;;;;;;;5.80;100.00;23614.91;6185613;23;20507;-65
2023/12/12 07:28:09;;;;;;;69.97;39.00;;;;;;;5.64;100.00;16591.41;6185505;23;20162;-64
2023/12/12 07:30:36;;;;;;;65.43;37.67;;;;;;;5.71;100.00;14364.19;6186005;23;20516;-66
2023/12/12 07:33:05;;;;;;;77.67;40.43;;;;;;;5.75;100.00;14683.63;6185328;23;20237;-64
2023/12/12 07:35:31;;;;;;;67.17;36.00;;;;;;;5.79;100.00;15003.31;6184838;23;20220;-64
2023/12/12 07:38:01;;;;;;;68.77;35.30;;;;;;;5.77;100.00;17232.97;6185749;23;20158;-64
2023/12/12 07:40:30;;;;;;;58.83;35.47;;;;;;;5.94;100.00;20747.53;6184528;23;20161;-64
2023/12/12 07:42:57;;;;;;;63.70;36.20;;;;;;;5.90;100.00;22661.25;6184564;23;20178;-65
2023/12/12 07:45:24;;;;;;;59.40;36.37;;;;;;;6.02;100.00;22027.22;6188406;23;20170;-64
2023/12/12 07:47:51;;;;;;;54.53;35.10;;;;;;;6.26;100.00;21717.72;6189208;23;20165;-64
2023/12/12 07:50:20;;;;;;;55.17;35.30;;;;;;;6.26;100.00;22995.78;6184633;23;20162;-65
2023/12/12 07:52:47;;;;;;;59.67;36.77;;;;;;;6.44;100.00;25241.34;6184618;23;20197;-65
2023/12/12 07:55:14;;;;;;;53.63;34.80;;;;;;;6.51;100.00;29405.47;6184556;23;20162;-65
2023/12/12 07:57:42;;;;;;;51.10;33.53;;;;;;;6.61;100.00;37107.38;6185109;23;20217;-65
2023/12/12 08:00:10;;;;;;;54.53;34.37;;;;;;;6.72;100.00;41613.31;6185107;23;20159;-65
2023/12/12 08:02:37;;;;;;;52.73;34.03;;;;;;;6.61;100.00;46752.97;6184395;23;20277;-65
2023/12/12 08:05:06;;;;;;;69.60;37.27;;;;;;;6.74;100.00;46441.22;6184450;23;20232;-65
2023/12/12 08:07:34;;;;;;;60.43;36.17;;;;;;;6.84;100.00;46127.72;6184346;23;20158;-64
2023/12/12 08:10:02;;;;;;;62.73;35.43;;;;;;;6.91;100.00;43556.97;6184880;23;20236;-65
2023/12/12 08:12:29;;;;;;;55.07;33.73;;;;;;;6.81;100.00;44837.03;6184824;23;20664;-64
2023/12/12 08:14:56;;;;;;;54.70;32.97;;;;;;;6.97;100.00;43561.56;6184410;23;20221;-66
2023/12/12 08:17:23;;;;;;;54.67;32.77;;;;;;;6.93;100.00;47745.00;6184676;23;20214;-65
2023/12/12 08:19:53;;;;;;;51.13;31.03;;;;;;;6.99;100.00;49039.78;6184873;23;20558;-66
2023/12/12 08:22:23;;;;;;;53.60;31.20;;;;;;;7.06;100.00;52271.22;6185221;23;20198;-66
2023/12/12 08:24:53;;;;;;;51.90;31.27;;;;;;;7.12;100.00;54536.88;6184108;23;20190;-65
2023/12/12 08:27:20;;;;;;;58.67;30.97;;;;;;;7.01;100.00;54526.41;6185148;23;20584;-65
2023/12/12 08:29:48;;;;;;;52.53;30.87;;;;;;;7.13;100.00;57769.78;6184239;23;20213;-65
2023/12/12 08:32:16;;;;;;;56.17;31.23;;;;;;;7.33;100.00;62643.94;6185019;23;20278;-65
2023/12/12 08:34:43;;;;;;;58.93;31.20;;;;;;;7.28;100.00;64258.13;6184390;23;20185;-65
2023/12/12 08:37:10;;;;;;;55.50;30.50;;;;;;;7.32;100.00;61995.19;6184857;23;20549;-65
2023/12/12 08:39:38;;;;;;;59.23;31.30;;;;;;;7.24;100.00;65225.75;6184503;23;20549;-65
2023/12/12 08:42:07;;;;;;;52.20;31.97;;;;;;;7.28;100.00;73017.91;6184227;23;20182;-65
2023/12/12 08:44:34;;;;;;;66.17;30.87;;;;;;;7.41;100.00;74008.47;6184494;23;20166;-66
2023/12/12 08:47:01;;;;;;;54.77;31.03;;;;;;;7.55;100.00;72076.47;6184779;23;20562;-64
2023/12/12 08:49:28;;;;;;;55.30;30.30;;;;;;;7.48;100.00;73692.38;6184499;23;20158;-63
2023/12/12 08:51:55;;;;;;;58.10;30.87;;;;;;;7.70;100.00;79251.78;6184998;23;20174;-64
2023/12/12 08:54:22;;;;;;;63.70;31.83;;;;;;;7.86;100.00;82205.66;6184756;23;20158;-64
2023/12/12 08:56:52;;;;;;;53.20;30.50;;;;;;;7.82;100.00;92975.09;6184481;23;20194;-65
2023/12/12 08:59:22;;;;;;;63.80;30.57;;;;;;;8.00;100.00;103813.19;6184589;23;20633;-63
2023/12/12 09:01:49;;;;;;;73.93;29.90;;;;;;;7.96;100.00;110702.91;6184225;23;20162;-66
2023/12/12 09:04:16;;;;;;;63.20;29.23;;;;;;;7.87;100.00;111343.34;6184333;23;20553;-65
2023/12/12 09:06:44;;;;;;;58.73;28.80;;;;;;;8.01;100.00;117293.97;6184514;23;20158;-64
2023/12/12 09:09:13;;;;;;;66.57;28.60;;;;;;;7.91;100.00;120568.81;6184685;23;20627;-64
2023/12/12 09:11:40;;;;;;;56.87;28.23;;;;;;;8.14;100.00;123255.28;6184516;23;20155;-64
2023/12/12 09:14:08;;;;;;;50.10;28.80;;;;;;;8.01;100.00;142718.53;6184266;23;20248;-64
2023/12/12 09:16:36;;;;;;;61.13;29.33;;;;;;;7.88;100.00;136089.13;6184337;23;20197;-64
2023/12/12 09:19:03;;;;;;;71.97;29.90;;;;;;;7.94;100.00;133455.13;6184679;23;20166;-64
2023/12/12 09:21:31;;;;;;;67.60;31.23;;;;;;;7.97;100.00;131146.59;6184494;23;20541;-64
2023/12/12 09:23:58;;;;;;;60.23;30.30;;;;;;;7.91;100.00;126177.19;6183900;23;20270;-64
2023/12/12 09:26:25;;;;;;;60.90;29.33;;;;;;;7.74;100.00;123173.31;6184113;23;20158;-64
2023/12/12 09:28:52;;;;;;;66.23;29.97;;;;;;;7.93;100.00;112341.25;6184514;23;20601;-63
2023/12/12 09:31:26;;;;;;;60.43;31.50;;;;;;;7.92;100.00;97244.56;6184341;23;20162;-65
2023/12/12 09:33:55;;;;;;;67.50;32.50;;;;;;;7.85;100.00;85791.41;6183791;23;20237;-64
2023/12/12 09:36:22;;;;;;;59.70;32.47;;;;;;;7.91;100.00;88412.94;6184456;23;20545;-65
2023/12/12 09:38:49;;;;;;;72.37;32.37;;;;;;;7.89;100.00;85470.94;6184141;23;20162;-64
2023/12/12 09:41:21;;;;;;;61.70;32.87;;;;;;;7.84;100.00;78944.47;6183928;23;20165;-63
2023/12/12 09:43:49;;;;;;;56.37;33.00;;;;;;;7.94;100.00;78305.91;6183678;23;20244;-64
2023/12/12 09:46:16;;;;;;;60.00;33.23;;;;;;;7.95;100.00;76679.25;6183435;23;20212;-64
2023/12/12 09:48:45;;;;;;;63.37;32.13;;;;;;;8.16;100.00;78661.34;6183785;23;20154;-64
2023/12/12 09:51:15;;;;;;;56.27;31.87;;;;;;;8.21;100.00;94345.50;6184023;23;20210;-64
2023/12/12 09:53:46;;;;;;;55.57;31.83;;;;;;;8.18;100.00;99908.75;6183513;23;20202;-64
2023/12/12 09:56:16;;;;;;;50.53;32.37;;;;;;;8.19;100.00;112721.09;6183913;23;20155;-64
2023/12/12 09:58:46;;;;;;;66.37;33.23;;;;;;;8.24;100.00;110426.94;6184121;23;20472;-64
2023/12/12 10:01:14;;;;;;;56.07;32.13;;;;;;;8.20;100.00;105490.19;6183791;23;20220;-65
2023/12/12 10:03:42;;;;;;;46.67;28.73;;;;;;;7.92;100.00;106425.50;6183831;23;20221;-64
2023/12/12 10:06:11;;;;;;;44.27;28.03;;;;;;;8.10;100.00;114349.25;6184499;23;20163;-65
2023/12/12 10:08:40;;;;;;;45.87;26.97;;;;;;;8.14;100.00;109094.03;6184011;23;20158;-64
2023/12/12 10:11:09;;;;;;;46.47;26.87;;;;;;;8.00;100.00;109067.97;6184515;23;20162;-64
2023/12/12 10:13:58;;;;;;;51.73;27.33;;;;;;;8.12;100.00;107447.28;6183612;23;20169;-66
2023/12/12 10:16:26;;;;;;;56.13;27.50;;;;;;;8.11;100.00;103176.41;6177863;23;20174;-64
2023/12/12 10:18:53;;;;;;;43.73;28.23;;;;;;;8.28;100.00;111093.25;6183580;23;20517;-67
2023/12/12 10:21:21;;;;;;;43.83;29.10;;;;;;;8.37;100.00;114071.69;6183957;23;20547;-65
2023/12/12 10:23:51;;;;;;;52.63;31.43;;;;;;;8.44;100.00;112109.97;6183496;23;20178;-64
2023/12/12 10:26:25;;;;;;;54.40;31.67;;;;;;;8.39;100.00;117040.47;6184298;23;20547;-65
2023/12/12 10:28:54;;;;;;;49.47;30.73;;;;;;;8.49;100.00;122337.31;6183871;23;20180;-65
2023/12/12 10:31:22;;;;;;;49.67;30.57;;;;;;;8.48;100.00;123986.19;6183846;23;20166;-64
2023/12/12 10:33:50;;;;;;;58.00;32.10;;;;;;;8.55;100.00;125984.44;6183555;23;20154;-64
2023/12/12 10:36:17;;;;;;;68.97;33.33;;;;;;;8.57;100.00;130948.69;6183172;23;20213;-65
2023/12/12 10:38:44;;;;;;;48.30;31.83;;;;;;;8.53;100.00;130277.94;6183839;23;20162;-64
2023/12/12 10:41:15;;;;;;;70.50;35.00;;;;;;;8.58;100.00;130289.00;6183811;23;20162;-65
2023/12/12 10:43:43;;;;;;;64.10;34.73;;;;;;;8.38;100.00;137530.84;6184123;23;20236;-65
2023/12/12 10:46:12;;;;;;;59.40;34.53;;;;;;;8.30;100.00;126920.91;6184476;23;20162;-64
2023/12/12 10:48:44;;;;;;;56.33;34.57;;;;;;;8.41;100.00;124962.19;6183317;23;20164;-65
2023/12/12 10:51:12;;;;;;;57.57;34.73;;;;;;;8.29;100.00;124607.47;6183611;23;20578;-64
2023/12/12 10:53:41;;;;;;;55.37;34.43;;;;;;;8.19;100.00;123595.81;6183502;23;20245;-63
2023/12/12 10:56:09;;;;;;;57.43;35.10;;;;;;;8.28;100.00;128570.16;6183910;23;20475;-64
2023/12/12 10:58:40;;;;;;;55.07;35.23;;;;;;;8.47;100.00;126958.75;6183438;23;20158;-64
2023/12/12 11:01:09;;;;;;;73.10;34.50;;;;;;;8.54;100.00;124659.50;6183608;23;20169;-64
2023/12/12 11:03:38;;;;;;;63.97;35.27;;;;;;;8.54;100.00;140459.16;6183269;23;20178;-64
2023/12/12 11:06:05;;;;;;;48.87;33.57;;;;;;;8.58;100.00;148201.91;6183172;23;20158;-65
2023/12/12 11:08:33;;;;;;;56.00;32.60;;;;;;;8.69;100.00;148229.72;6183428;23;20162;-64
2023/12/12 11:11:02;;;;;;;49.53;31.97;;;;;;;8.65;100.00;148218.34;6183771;23;20193;-65
2023/12/12 11:13:33;;;;;;;48.77;29.67;;;;;;;8.73;100.00;148237.25;6183292;23;20158;-64